createdAt,value
2022-08-09T00:00:13.329Z,18.60
2022-08-09T00:02:49.674Z,18.60
2022-08-09T00:06:19.590Z,18.50
2022-08-09T00:08:11.035Z,18.50
2022-08-09T00:10:40.542Z,18.50
2022-08-09T00:13:16.752Z,18.40
2022-08-09T00:15:58.895Z,18.40
2022-08-09T00:18:35.062Z,18.40
2022-08-09T00:21:04.867Z,18.40
2022-08-09T00:23:55.133Z,18.40
2022-08-09T00:26:18.849Z,18.30
2022-08-09T00:28:56.801Z,18.30
2022-08-09T00:31:57.162Z,18.20
2022-08-09T00:34:11.999Z,18.20
2022-08-09T00:36:39.956Z,18.20
2022-08-09T00:39:17.086Z,18.20
2022-08-09T00:44:14.086Z,18.10
2022-08-09T00:44:42.681Z,18.00
2022-08-09T00:47:15.533Z,18.00
2022-08-09T00:49:52.408Z,18.00
2022-08-09T00:52:19.502Z,17.90
2022-08-09T00:54:48.575Z,17.90
2022-08-09T00:57:33.626Z,17.90
2022-08-09T01:00:05.433Z,17.90
2022-08-09T01:03:14.969Z,17.80
2022-08-09T01:05:54.229Z,17.90
2022-08-09T01:08:48.919Z,17.80
2022-08-09T01:11:55.893Z,17.80
2022-08-09T01:15:05.980Z,17.80
2022-08-09T01:17:45.382Z,17.70
2022-08-09T01:20:24.325Z,17.60
2022-08-09T01:24:01.212Z,17.60
2022-08-09T01:26:15.818Z,17.60
2022-08-09T01:28:46.001Z,17.50
2022-08-09T01:32:31.750Z,17.50
2022-08-09T01:34:08.961Z,17.40
2022-08-09T01:36:38.595Z,17.30
2022-08-09T01:39:06.442Z,17.10
2022-08-09T01:41:36.627Z,17.00
2022-08-09T01:44:22.600Z,16.90
2022-08-09T01:46:51.253Z,16.80
2022-08-09T01:49:24.233Z,16.80
2022-08-09T01:51:54.731Z,16.80
2022-08-09T01:54:36.373Z,16.80
2022-08-09T01:57:23.770Z,16.80
2022-08-09T01:59:59.904Z,16.80
2022-08-09T02:02:30.117Z,16.80
2022-08-09T02:05:05.567Z,16.80
2022-08-09T02:08:39.435Z,16.80
2022-08-09T02:10:39.992Z,16.80
2022-08-09T02:13:12.740Z,16.80
2022-08-09T02:15:49.362Z,16.80
2022-08-09T02:18:25.911Z,16.70
2022-08-09T02:20:58.794Z,16.60
2022-08-09T02:23:43.740Z,16.50
2022-08-09T02:26:26.650Z,16.30
2022-08-09T02:28:59.541Z,16.30
2022-08-09T02:31:35.611Z,16.30
2022-08-09T02:34:13.596Z,16.20
2022-08-09T02:36:56.285Z,16.20
2022-08-09T02:39:41.928Z,16.20
2022-08-09T02:42:16.774Z,16.20
2022-08-09T02:44:49.283Z,16.20
2022-08-09T02:47:19.807Z,16.20
2022-08-09T02:50:01.602Z,16.10
2022-08-09T02:52:41.268Z,16.10
2022-08-09T02:55:20.659Z,16.10
2022-08-09T02:58:00.001Z,16.00
2022-08-09T03:00:39.480Z,15.90
2022-08-09T03:03:21.629Z,15.80
2022-08-09T03:06:06.049Z,15.70
2022-08-09T03:08:35.629Z,15.70
2022-08-09T03:11:02.825Z,15.60
2022-08-09T03:13:43.696Z,15.60
2022-08-09T03:16:19.171Z,15.60
2022-08-09T03:18:47.557Z,15.60
2022-08-09T03:21:19.532Z,15.50
2022-08-09T03:24:04.817Z,15.50
2022-08-09T03:26:33.988Z,15.50
2022-08-09T03:29:01.152Z,15.50
2022-08-09T03:31:42.772Z,15.50
2022-08-09T03:34:24.571Z,15.50
2022-08-09T03:36:59.366Z,15.40
2022-08-09T03:39:28.845Z,15.40
2022-08-09T03:42:06.729Z,15.30
2022-08-09T03:44:33.859Z,15.30
2022-08-09T03:47:00.462Z,15.30
2022-08-09T03:49:29.953Z,15.30
2022-08-09T03:52:03.648Z,15.30
2022-08-09T03:54:38.397Z,15.30
2022-08-09T03:57:18.369Z,15.40
2022-08-09T03:59:55.036Z,15.40
2022-08-09T04:02:26.689Z,15.40
2022-08-09T04:04:56.793Z,15.40
2022-08-09T04:07:47.309Z,15.50
2022-08-09T04:10:12.967Z,15.50
2022-08-09T04:12:46.389Z,15.50
2022-08-09T04:15:29.526Z,15.50
2022-08-09T04:18:02.617Z,15.50
2022-08-09T04:20:29.586Z,15.50
2022-08-09T04:22:59.808Z,15.50
2022-08-09T04:25:26.588Z,15.50
2022-08-09T04:27:55.355Z,15.50
2022-08-09T04:30:29.528Z,15.50
2022-08-09T04:32:57.050Z,15.50
2022-08-09T04:35:23.757Z,15.50
2022-08-09T04:37:50.607Z,15.50
2022-08-09T04:40:28.707Z,15.50
2022-08-09T04:43:03.517Z,15.60
2022-08-09T04:45:31.067Z,15.60
2022-08-09T04:48:07.963Z,15.60
2022-08-09T04:50:38.010Z,15.70
2022-08-09T04:53:13.206Z,15.70
2022-08-09T04:55:57.637Z,15.80
2022-08-09T04:58:25.826Z,15.80
2022-08-09T05:00:54.501Z,15.80
2022-08-09T05:03:39.940Z,15.80
2022-08-09T05:06:09.779Z,15.70
2022-08-09T05:08:38.233Z,15.70
2022-08-09T05:11:06.715Z,15.80
2022-08-09T05:13:33.931Z,15.80
2022-08-09T05:16:05.761Z,15.90
2022-08-09T05:18:38.257Z,16.00
2022-08-09T05:21:23.061Z,16.00
2022-08-09T05:24:00.608Z,16.10
2022-08-09T05:26:37.191Z,16.20
2022-08-09T05:29:17.397Z,16.20
2022-08-09T05:31:50.442Z,16.30
2022-08-09T05:34:31.470Z,16.40
2022-08-09T05:37:06.286Z,16.50
2022-08-09T05:39:43.174Z,16.60
2022-08-09T05:42:26.275Z,16.70
2022-08-09T05:44:55.476Z,16.70
2022-08-09T05:47:24.359Z,16.80
2022-08-09T05:50:25.764Z,16.90
2022-08-09T05:52:41.810Z,17.00
2022-08-09T05:55:20.282Z,17.00
2022-08-09T05:57:56.116Z,17.10
2022-08-09T06:00:25.734Z,17.20
2022-08-09T06:02:54.228Z,17.30
2022-08-09T06:05:31.108Z,17.30
2022-08-09T06:08:09.192Z,17.40
2022-08-09T06:10:40.894Z,17.50
2022-08-09T06:13:12.405Z,17.60
2022-08-09T06:15:46.882Z,17.70
2022-08-09T06:18:14.013Z,17.70
2022-08-09T06:20:42.897Z,17.80
2022-08-09T06:23:16.729Z,17.90
2022-08-09T06:25:43.454Z,17.90
2022-08-09T06:28:10.242Z,18.00
2022-08-09T06:30:40.519Z,18.00
2022-08-09T06:33:30.261Z,18.00
2022-08-09T06:35:58.413Z,18.10
2022-08-09T06:38:37.213Z,18.20
2022-08-09T06:41:18.259Z,18.20
2022-08-09T06:43:47.513Z,18.30
2022-08-09T06:46:39.226Z,18.30
2022-08-09T06:49:02.470Z,18.40
2022-08-09T06:51:29.160Z,18.40
2022-08-09T06:53:55.819Z,18.50
2022-08-09T06:56:30.831Z,18.60
2022-08-09T07:00:51.427Z,18.70
2022-08-09T07:01:58.017Z,18.80
2022-08-09T07:04:30.701Z,18.80
2022-08-09T07:07:00.555Z,18.90
2022-08-09T07:09:53.675Z,19.00
2022-08-09T07:12:18.059Z,19.10
2022-08-09T07:14:51.307Z,19.10
2022-08-09T07:17:21.726Z,19.20
2022-08-09T07:19:50.604Z,19.30
2022-08-09T07:22:18.681Z,19.40
2022-08-09T07:25:01.474Z,19.50
2022-08-09T07:27:33.968Z,19.60
2022-08-09T07:30:11.082Z,19.60
2022-08-09T07:32:38.134Z,19.70
2022-08-09T07:35:11.621Z,19.70
2022-08-09T07:37:46.108Z,19.80
2022-08-09T07:40:20.087Z,19.80
2022-08-09T07:42:59.312Z,19.90
2022-08-09T07:45:37.629Z,20.00
2022-08-09T07:48:05.667Z,20.10
2022-08-09T07:50:36.754Z,20.20
2022-08-09T07:53:05.294Z,20.20
2022-08-09T07:55:41.514Z,20.30
2022-08-09T07:58:21.569Z,20.40
2022-08-09T08:00:58.847Z,20.40
2022-08-09T08:03:33.502Z,20.50
2022-08-09T08:06:04.401Z,20.50
2022-08-09T08:09:01.419Z,20.60
2022-08-09T08:12:24.559Z,20.70
2022-08-09T08:14:06.616Z,20.70
2022-08-09T08:16:34.535Z,20.70
2022-08-09T08:19:03.042Z,20.80
2022-08-09T08:21:31.081Z,20.90
2022-08-09T08:24:01.484Z,21.00
2022-08-09T08:26:55.277Z,21.10
2022-08-09T08:29:28.066Z,21.10
2022-08-09T08:32:03.480Z,21.20
2022-08-09T08:34:33.745Z,21.30
2022-08-09T08:37:01.938Z,21.30
2022-08-09T08:39:28.883Z,21.40
2022-08-09T08:41:58.933Z,21.40
2022-08-09T08:44:29.536Z,21.50
2022-08-09T08:47:03.213Z,21.60
2022-08-09T08:49:46.944Z,21.60
2022-08-09T08:52:57.510Z,21.70
2022-08-09T08:55:08.014Z,21.70
2022-08-09T08:57:35.858Z,21.70
2022-08-09T09:00:08.000Z,21.70
2022-08-09T09:02:46.835Z,21.80
2022-08-09T09:05:58.670Z,21.80
2022-08-09T09:08:30.198Z,21.90
2022-08-09T09:11:04.570Z,22.00
2022-08-09T09:13:55.304Z,22.10
2022-08-09T09:16:31.149Z,22.20
2022-08-09T09:19:37.534Z,22.20
2022-08-09T09:22:26.545Z,22.20
2022-08-09T09:25:27.709Z,22.30
2022-08-09T09:28:06.055Z,22.30
2022-08-09T09:30:41.043Z,22.40
2022-08-09T09:33:16.378Z,22.40
2022-08-09T09:36:01.922Z,22.50
2022-08-09T09:38:43.526Z,22.50
2022-08-09T09:41:24.169Z,22.60
2022-08-09T09:44:12.266Z,22.60
2022-08-09T09:46:45.604Z,22.70
2022-08-09T09:49:32.257Z,22.70
2022-08-09T09:52:33.486Z,22.80
2022-08-09T09:55:16.099Z,22.90
2022-08-09T09:58:02.644Z,22.90
2022-08-09T10:00:31.282Z,23.00
2022-08-09T10:02:59.434Z,23.10
2022-08-09T10:05:26.991Z,23.20
2022-08-09T10:08:27.382Z,23.30
2022-08-09T10:10:54.940Z,23.40
2022-08-09T10:13:24.810Z,23.40
2022-08-09T10:16:56.870Z,23.50
2022-08-09T10:19:00.980Z,23.60
2022-08-09T10:21:29.461Z,23.70
2022-08-09T10:23:57.326Z,23.90
2022-08-09T10:26:27.040Z,24.00
2022-08-09T10:29:35.912Z,24.10
2022-08-09T10:34:33.676Z,24.30
2022-08-09T10:37:02.662Z,24.40
2022-08-09T10:39:30.324Z,24.50
2022-08-09T10:42:08.173Z,24.60
2022-08-09T10:44:39.914Z,24.60
2022-08-09T10:48:17.473Z,24.70
2022-08-09T10:51:09.489Z,24.90
2022-08-09T10:53:55.506Z,25.10
2022-08-09T10:56:23.855Z,25.20
2022-08-09T10:58:58.670Z,25.30
2022-08-09T11:03:11.446Z,25.40
2022-08-09T11:04:31.541Z,25.60
2022-08-09T11:06:59.701Z,25.70
2022-08-09T11:09:41.204Z,25.70
2022-08-09T11:12:20.221Z,25.80
2022-08-09T11:14:51.352Z,25.90
2022-08-09T11:17:19.254Z,25.90
2022-08-09T11:20:11.572Z,26.00
2022-08-09T11:22:43.206Z,26.20
2022-08-09T11:25:15.978Z,26.30
2022-08-09T11:28:02.662Z,26.40
2022-08-09T11:30:37.654Z,26.50
2022-08-09T11:33:12.999Z,26.60
2022-08-09T11:35:49.865Z,26.80
2022-08-09T11:38:32.017Z,26.90
2022-08-09T11:41:05.252Z,27.00
2022-08-09T11:43:32.397Z,27.20
2022-08-09T11:46:01.070Z,27.30
2022-08-09T11:48:31.758Z,27.40
2022-08-09T11:52:06.819Z,27.60
2022-08-09T11:54:00.706Z,27.70
2022-08-09T11:56:34.510Z,28.00
2022-08-09T11:59:29.846Z,28.20
2022-08-09T12:02:16.550Z,28.50
2022-08-09T12:04:44.609Z,28.70
2022-08-09T12:07:11.496Z,29.00
2022-08-09T12:09:51.032Z,29.20
2022-08-09T12:12:20.582Z,29.30
2022-08-09T12:15:04.674Z,29.60
2022-08-09T12:17:44.504Z,29.80
2022-08-09T12:20:16.757Z,30.00
2022-08-09T12:23:00.612Z,30.30
2022-08-09T12:25:34.725Z,30.60
2022-08-09T12:28:59.954Z,31.30
2022-08-09T12:30:58.993Z,32.20
2022-08-09T12:33:35.386Z,33.10
2022-08-09T12:36:27.796Z,33.90
2022-08-09T12:38:59.540Z,34.80
2022-08-09T12:41:29.003Z,35.60
2022-08-09T12:44:06.391Z,36.20
2022-08-09T12:46:36.104Z,36.70
2022-08-09T12:49:03.693Z,37.30
2022-08-09T12:52:00.288Z,37.90
2022-08-09T12:54:17.790Z,38.40
2022-08-09T12:56:53.830Z,38.90
2022-08-09T12:59:23.355Z,39.30
2022-08-09T13:01:58.956Z,39.70
2022-08-09T13:04:36.214Z,40.10
2022-08-09T13:07:13.531Z,40.40
2022-08-09T13:09:43.364Z,40.90
2022-08-09T13:12:19.972Z,41.00
2022-08-09T13:14:53.852Z,41.40
2022-08-09T13:17:44.456Z,41.70
2022-08-09T13:20:14.061Z,42.00
2022-08-09T13:23:02.135Z,42.40
2022-08-09T13:25:42.833Z,43.00
2022-08-09T13:28:18.767Z,43.50
2022-08-09T13:32:13.347Z,43.60
2022-08-09T13:33:53.248Z,43.90
2022-08-09T13:36:37.633Z,44.30
2022-08-09T13:41:22.366Z,44.80
2022-08-09T13:42:12.097Z,45.00
2022-08-09T13:44:42.061Z,45.40
2022-08-09T13:47:33.834Z,45.60
2022-08-09T13:50:30.072Z,45.30
2022-08-09T13:52:58.244Z,44.40
2022-08-09T13:55:29.156Z,43.60
2022-08-09T13:57:58.387Z,43.10
2022-08-09T14:00:28.945Z,42.30
2022-08-09T14:03:03.911Z,41.40
2022-08-09T14:05:58.389Z,40.80
2022-08-09T14:08:30.013Z,40.00
2022-08-09T14:10:57.955Z,39.50
2022-08-09T14:14:15.745Z,39.10
2022-08-09T14:16:16.303Z,38.30
2022-08-09T14:18:49.582Z,37.80
2022-08-09T14:21:23.236Z,37.60
2022-08-09T14:23:56.532Z,37.70
2022-08-09T14:26:34.031Z,37.70
2022-08-09T14:29:08.156Z,38.00
2022-08-09T14:31:53.394Z,38.00
2022-08-09T14:34:27.570Z,38.70
2022-08-09T14:37:08.718Z,40.00
2022-08-09T14:39:47.455Z,41.20
2022-08-09T14:42:31.647Z,42.50
2022-08-09T14:46:40.199Z,43.90
2022-08-09T14:47:59.344Z,45.10
2022-08-09T14:50:31.173Z,45.10
2022-08-09T14:52:59.315Z,44.20
2022-08-09T14:55:29.185Z,43.90
2022-08-09T14:58:00.075Z,43.90
2022-08-09T15:00:26.966Z,43.80
2022-08-09T15:02:58.342Z,44.30
2022-08-09T15:05:26.831Z,45.20
2022-08-09T15:07:54.833Z,46.20
2022-08-09T15:10:24.999Z,47.20
2022-08-09T15:12:53.241Z,47.90
2022-08-09T15:15:20.250Z,48.40
2022-08-09T15:17:52.779Z,48.70
2022-08-09T15:21:57.534Z,49.10
2022-08-09T15:24:01.310Z,49.40
2022-08-09T15:25:57.367Z,49.70
2022-08-09T15:28:28.353Z,49.60
2022-08-09T15:31:08.627Z,49.60
2022-08-09T15:34:19.617Z,49.60
2022-08-09T15:36:29.133Z,49.90
2022-08-09T15:38:58.851Z,50.00
2022-08-09T15:41:31.508Z,49.90
2022-08-09T15:44:02.494Z,49.80
2022-08-09T15:46:34.269Z,50.00
2022-08-09T15:49:21.039Z,50.00
2022-08-09T15:52:04.337Z,49.80
2022-08-09T15:54:44.841Z,50.00
2022-08-09T15:57:34.295Z,50.10
2022-08-09T16:00:24.688Z,50.20
2022-08-09T16:02:54.628Z,50.10
2022-08-09T16:05:23.659Z,50.00
2022-08-09T16:07:51.086Z,50.00
2022-08-09T16:10:55.371Z,50.00
2022-08-09T16:13:18.580Z,50.00
2022-08-09T16:16:10.003Z,50.00
2022-08-09T16:18:34.863Z,50.10
2022-08-09T16:21:01.605Z,50.30
2022-08-09T16:23:28.343Z,50.00
2022-08-09T16:26:02.598Z,49.80
2022-08-09T16:28:29.690Z,50.00
2022-08-09T16:30:59.221Z,50.00
2022-08-09T16:33:26.985Z,50.00
2022-08-09T16:35:58.162Z,50.00
2022-08-09T16:38:29.532Z,50.00
2022-08-09T16:40:56.768Z,50.10
2022-08-09T16:43:24.691Z,50.10
2022-08-09T16:45:55.181Z,50.10
2022-08-09T16:48:40.668Z,50.10
2022-08-09T16:51:14.370Z,50.00
2022-08-09T16:56:34.032Z,49.90
2022-08-09T16:59:06.912Z,49.30
2022-08-09T17:01:37.444Z,47.30
2022-08-09T17:04:06.681Z,44.30
2022-08-09T17:06:34.032Z,41.50
2022-08-09T17:09:45.275Z,39.20
2022-08-09T17:12:08.196Z,37.30
2022-08-09T17:14:35.258Z,35.80
2022-08-09T17:17:03.986Z,34.80
2022-08-09T17:20:28.815Z,34.10
2022-08-09T17:22:39.136Z,33.50
2022-08-09T17:25:17.496Z,33.00
2022-08-09T17:27:48.683Z,32.50
2022-08-09T17:30:15.785Z,32.20
2022-08-09T17:32:44.304Z,31.80
2022-08-09T17:35:13.035Z,31.60
2022-08-09T17:38:11.798Z,31.20
2022-08-09T17:40:34.785Z,30.90
2022-08-09T17:43:32.308Z,30.70
2022-08-09T17:46:03.863Z,30.40
2022-08-09T17:48:32.079Z,30.30
2022-08-09T17:50:59.362Z,30.00
2022-08-09T17:53:42.984Z,29.90
2022-08-09T17:56:10.791Z,29.60
2022-08-09T17:58:37.540Z,29.40
2022-08-09T18:01:22.115Z,29.30
2022-08-09T18:03:49.787Z,29.20
2022-08-09T18:06:31.442Z,29.10
2022-08-09T18:09:01.046Z,29.00
2022-08-09T18:11:27.748Z,29.00
2022-08-09T18:14:00.638Z,28.80
2022-08-09T18:16:30.684Z,28.70
2022-08-09T18:19:03.939Z,28.50
2022-08-09T18:21:40.856Z,28.50
2022-08-09T18:24:14.570Z,28.50
2022-08-09T18:26:46.697Z,28.50
2022-08-09T18:30:39.958Z,28.40
2022-08-09T18:32:05.341Z,28.40
2022-08-09T18:34:35.037Z,28.30
2022-08-09T18:37:03.834Z,28.20
2022-08-09T18:39:32.295Z,28.20
2022-08-09T18:42:08.743Z,28.10
2022-08-09T18:44:35.926Z,28.00
2022-08-09T18:47:12.526Z,27.80
2022-08-09T18:49:46.338Z,27.70
2022-08-09T18:52:16.051Z,27.70
2022-08-09T18:54:52.613Z,27.60
2022-08-09T18:57:22.476Z,27.50
2022-08-09T18:59:57.551Z,27.40
2022-08-09T19:02:32.547Z,27.30
2022-08-09T19:05:20.049Z,27.20
2022-08-09T19:08:03.883Z,27.20
2022-08-09T19:10:39.258Z,27.10
2022-08-09T19:13:20.806Z,27.00
2022-08-09T19:15:53.105Z,26.90
2022-08-09T19:18:35.778Z,26.80
2022-08-09T19:21:09.605Z,26.70
2022-08-09T19:24:33.356Z,26.50
2022-08-09T19:26:31.229Z,26.40
2022-08-09T19:29:01.731Z,26.30
2022-08-09T19:31:30.511Z,26.30
2022-08-09T19:33:58.070Z,26.20
2022-08-09T19:36:30.844Z,26.20
2022-08-09T19:39:01.081Z,26.10
2022-08-09T19:41:33.508Z,26.00
2022-08-09T19:44:03.350Z,25.90
2022-08-09T19:46:34.086Z,25.80
2022-08-09T19:50:09.026Z,25.70
2022-08-09T19:52:06.056Z,25.70
2022-08-09T19:54:35.666Z,25.60
2022-08-09T19:57:03.061Z,25.50
2022-08-09T19:59:57.602Z,25.50
2022-08-09T20:04:08.401Z,25.40
2022-08-09T20:05:14.876Z,25.30
2022-08-09T20:07:58.718Z,25.30
2022-08-09T20:10:36.358Z,25.20
2022-08-09T20:13:05.952Z,25.20
2022-08-09T20:16:32.974Z,25.10
2022-08-09T20:18:22.324Z,25.00
2022-08-09T20:20:51.298Z,25.00
2022-08-09T20:23:39.042Z,24.80
2022-08-09T20:26:13.013Z,24.80
2022-08-09T20:28:48.433Z,24.60
2022-08-09T20:31:16.928Z,24.60
2022-08-09T20:33:44.713Z,24.50
2022-08-09T20:36:12.386Z,24.40
2022-08-09T20:41:35.170Z,24.30
2022-08-09T20:44:09.860Z,24.20
2022-08-09T20:46:43.186Z,24.10
2022-08-09T20:49:13.727Z,24.00
2022-08-09T20:51:42.112Z,23.90
2022-08-09T20:54:12.474Z,23.80
2022-08-09T20:56:49.753Z,23.70
2022-08-09T20:59:50.373Z,23.60
2022-08-09T21:02:10.271Z,23.50
2022-08-09T21:05:55.077Z,23.40
2022-08-09T21:07:30.123Z,23.30
2022-08-09T21:10:08.112Z,23.30
2022-08-09T21:12:37.135Z,23.20
2022-08-09T21:15:04.846Z,23.10
2022-08-09T21:18:29.567Z,23.10
2022-08-09T21:20:26.013Z,23.10
2022-08-09T21:22:54.044Z,23.00
2022-08-09T21:25:44.363Z,23.00
2022-08-09T21:28:33.535Z,22.90
2022-08-09T21:31:17.416Z,22.80
2022-08-09T21:33:52.341Z,22.70
2022-08-09T21:36:28.922Z,22.70
2022-08-09T21:38:59.168Z,22.70
2022-08-09T21:42:04.588Z,22.60
2022-08-09T21:44:33.196Z,22.60
2022-08-09T21:47:10.539Z,22.50
2022-08-09T21:49:44.156Z,22.50
2022-08-09T21:52:18.413Z,22.40
2022-08-09T21:54:59.582Z,22.40
2022-08-09T21:57:39.049Z,22.30
2022-08-09T22:00:36.413Z,22.20
2022-08-09T22:03:06.378Z,22.20
2022-08-09T22:05:42.302Z,22.10
2022-08-09T22:08:13.268Z,22.00
2022-08-09T22:11:50.075Z,22.00
2022-08-09T22:13:34.781Z,22.00
2022-08-09T22:16:07.927Z,21.90
2022-08-09T22:18:37.284Z,21.90
2022-08-09T22:21:09.606Z,21.80
2022-08-09T22:23:59.473Z,21.70
2022-08-09T22:26:34.988Z,21.60
2022-08-09T22:29:09.150Z,21.60
2022-08-09T22:31:38.120Z,21.60
2022-08-09T22:34:15.018Z,21.60
2022-08-09T22:36:46.254Z,21.50
2022-08-09T22:39:47.318Z,21.40
2022-08-09T22:42:03.037Z,21.40
2022-08-09T22:44:33.077Z,21.30
2022-08-09T22:48:15.521Z,21.30
2022-08-09T22:49:51.996Z,21.20
2022-08-09T22:52:19.811Z,21.20
2022-08-09T22:54:47.625Z,21.20
2022-08-09T22:57:15.035Z,21.10
2022-08-09T22:59:55.353Z,21.10
2022-08-09T23:02:23.379Z,21.00
2022-08-09T23:04:54.179Z,20.90
2022-08-09T23:08:22.460Z,20.90
2022-08-09T23:10:28.848Z,20.90
2022-08-09T23:12:55.704Z,20.80
2022-08-09T23:15:22.566Z,20.80
2022-08-09T23:17:49.288Z,20.80
2022-08-09T23:20:16.294Z,20.70
2022-08-09T23:22:43.008Z,20.70
2022-08-09T23:25:10.961Z,20.60
2022-08-09T23:27:37.688Z,20.60
2022-08-09T23:30:24.367Z,20.50
2022-08-09T23:32:51.035Z,20.50
2022-08-09T23:35:18.183Z,20.50
2022-08-09T23:37:44.870Z,20.40
2022-08-09T23:40:12.110Z,20.40
2022-08-09T23:42:38.796Z,20.30
2022-08-09T23:45:08.960Z,20.30
2022-08-09T23:47:36.607Z,20.30
2022-08-09T23:50:04.811Z,20.20
2022-08-09T23:52:31.608Z,20.20
2022-08-09T23:54:59.897Z,20.20
2022-08-09T23:57:27.172Z,20.10
